sensor_id;sensor_type;location;lat;lon;timestamp;P1;durP1;ratioP1;P2;durP2;ratioP2
73980;SDS011;62348;51.412;5.436;2024-03-25T00:01:53;2.65;;;1.92;;
73980;SDS011;62348;51.412;5.436;2024-03-25T00:04:18;7.15;;;2.40;;
73980;SDS011;62348;51.412;5.436;2024-03-25T00:06:46;4.82;;;1.92;;
73980;SDS011;62348;51.412;5.436;2024-03-25T00:09:11;7.38;;;3.67;;
73980;SDS011;62348;51.412;5.436;2024-03-25T00:11:39;8.52;;;2.35;;
73980;SDS011;62348;51.412;5.436;2024-03-25T00:14:08;3.45;;;1.98;;
73980;SDS011;62348;51.412;5.436;2024-03-25T00:16:34;16.20;;;2.88;;
73980;SDS011;62348;51.412;5.436;2024-03-25T00:19:00;6.03;;;2.35;;
73980;SDS011;62348;51.412;5.436;2024-03-25T00:21:25;3.65;;;1.98;;
73980;SDS011;62348;51.412;5.436;2024-03-25T00:23:51;5.07;;;1.88;;
73980;SDS011;62348;51.412;5.436;2024-03-25T00:26:16;7.38;;;3.38;;
73980;SDS011;62348;51.412;5.436;2024-03-25T00:28:42;7.32;;;2.25;;
73980;SDS011;62348;51.412;5.436;2024-03-25T00:31:07;6.22;;;2.35;;
73980;SDS011;62348;51.412;5.436;2024-03-25T00:33:33;3.22;;;1.77;;
73980;SDS011;62348;51.412;5.436;2024-03-25T00:35:58;4.97;;;2.55;;
73980;SDS011;62348;51.412;5.436;2024-03-25T00:38:24;10.23;;;3.28;;
73980;SDS011;62348;51.412;5.436;2024-03-25T00:40:50;12.68;;;2.92;;
73980;SDS011;62348;51.412;5.436;2024-03-25T00:43:15;6.90;;;2.17;;
73980;SDS011;62348;51.412;5.436;2024-03-25T00:45:41;9.23;;;3.75;;
73980;SDS011;62348;51.412;5.436;2024-03-25T00:48:06;13.82;;;2.03;;
73980;SDS011;62348;51.412;5.436;2024-03-25T00:50:32;16.73;;;2.50;;
73980;SDS011;62348;51.412;5.436;2024-03-25T00:52:58;7.63;;;2.65;;
73980;SDS011;62348;51.412;5.436;2024-03-25T00:55:23;5.20;;;2.20;;
73980;SDS011;62348;51.412;5.436;2024-03-25T00:57:49;2.97;;;1.95;;
73980;SDS011;62348;51.412;5.436;2024-03-25T01:00:15;11.77;;;3.78;;
73980;SDS011;62348;51.412;5.436;2024-03-25T01:02:41;8.10;;;1.85;;
73980;SDS011;62348;51.412;5.436;2024-03-25T01:05:07;9.15;;;2.17;;
73980;SDS011;62348;51.412;5.436;2024-03-25T01:07:33;5.85;;;2.60;;
73980;SDS011;62348;51.412;5.436;2024-03-25T01:09:59;2.28;;;2.08;;
73980;SDS011;62348;51.412;5.436;2024-03-25T01:12:24;5.15;;;2.17;;
73980;SDS011;62348;51.412;5.436;2024-03-25T01:14:50;5.43;;;1.88;;
73980;SDS011;62348;51.412;5.436;2024-03-25T01:17:16;7.32;;;2.15;;
73980;SDS011;62348;51.412;5.436;2024-03-25T01:19:42;9.60;;;2.53;;
73980;SDS011;62348;51.412;5.436;2024-03-25T01:22:08;7.47;;;2.38;;
73980;SDS011;62348;51.412;5.436;2024-03-25T01:24:34;20.08;;;6.38;;
73980;SDS011;62348;51.412;5.436;2024-03-25T01:26:59;2.92;;;2.17;;
73980;SDS011;62348;51.412;5.436;2024-03-25T01:29:25;4.63;;;2.10;;
73980;SDS011;62348;51.412;5.436;2024-03-25T01:31:51;4.80;;;2.20;;
73980;SDS011;62348;51.412;5.436;2024-03-25T01:34:16;15.07;;;2.13;;
73980;SDS011;62348;51.412;5.436;2024-03-25T01:36:42;14.38;;;3.80;;
73980;SDS011;62348;51.412;5.436;2024-03-25T01:39:07;4.43;;;2.20;;
73980;SDS011;62348;51.412;5.436;2024-03-25T01:41:33;5.28;;;2.60;;
73980;SDS011;62348;51.412;5.436;2024-03-25T01:43:58;9.32;;;3.38;;
73980;SDS011;62348;51.412;5.436;2024-03-25T01:46:24;10.90;;;2.80;;
73980;SDS011;62348;51.412;5.436;2024-03-25T01:48:50;5.60;;;2.00;;
73980;SDS011;62348;51.412;5.436;2024-03-25T01:51:17;5.63;;;2.67;;
73980;SDS011;62348;51.412;5.436;2024-03-25T01:53:45;5.72;;;2.72;;
73980;SDS011;62348;51.412;5.436;2024-03-25T01:56:12;9.68;;;2.47;;
73980;SDS011;62348;51.412;5.436;2024-03-25T01:58:39;7.68;;;2.80;;
73980;SDS011;62348;51.412;5.436;2024-03-25T02:01:04;7.60;;;1.92;;
73980;SDS011;62348;51.412;5.436;2024-03-25T02:03:30;19.55;;;2.22;;
73980;SDS011;62348;51.412;5.436;2024-03-25T02:16:02;4.70;;;2.70;;
73980;SDS011;62348;51.412;5.436;2024-03-25T02:18:28;5.50;;;3.08;;
73980;SDS011;62348;51.412;5.436;2024-03-25T02:20:55;5.90;;;2.33;;
73980;SDS011;62348;51.412;5.436;2024-03-25T02:23:21;4.68;;;2.72;;
73980;SDS011;62348;51.412;5.436;2024-03-25T02:25:50;11.70;;;4.22;;
73980;SDS011;62348;51.412;5.436;2024-03-25T02:28:16;4.10;;;2.35;;
73980;SDS011;62348;51.412;5.436;2024-03-25T02:30:41;14.60;;;3.10;;
73980;SDS011;62348;51.412;5.436;2024-03-25T02:33:07;6.05;;;2.78;;
73980;SDS011;62348;51.412;5.436;2024-03-25T02:35:32;10.35;;;2.58;;
73980;SDS011;62348;51.412;5.436;2024-03-25T02:37:59;4.25;;;3.50;;
73980;SDS011;62348;51.412;5.436;2024-03-25T02:40:25;3.92;;;2.30;;
73980;SDS011;62348;51.412;5.436;2024-03-25T02:42:51;7.60;;;2.63;;
73980;SDS011;62348;51.412;5.436;2024-03-25T02:45:17;18.90;;;3.20;;
73980;SDS011;62348;51.412;5.436;2024-03-25T02:47:43;11.35;;;5.45;;
73980;SDS011;62348;51.412;5.436;2024-03-25T02:50:08;3.40;;;2.80;;
73980;SDS011;62348;51.412;5.436;2024-03-25T02:52:34;1.80;;;1.65;;
73980;SDS011;62348;51.412;5.436;2024-03-25T02:54:59;3.90;;;2.30;;
73980;SDS011;62348;51.412;5.436;2024-03-25T02:57:24;7.00;;;2.60;;
73980;SDS011;62348;51.412;5.436;2024-03-25T02:59:50;4.68;;;2.05;;
73980;SDS011;62348;51.412;5.436;2024-03-25T03:02:15;5.00;;;2.63;;
73980;SDS011;62348;51.412;5.436;2024-03-25T03:04:40;7.63;;;2.40;;
73980;SDS011;62348;51.412;5.436;2024-03-25T03:07:06;4.50;;;2.28;;
73980;SDS011;62348;51.412;5.436;2024-03-25T03:09:31;5.53;;;3.35;;
73980;SDS011;62348;51.412;5.436;2024-03-25T03:11:56;7.07;;;2.47;;
73980;SDS011;62348;51.412;5.436;2024-03-25T03:14:22;4.97;;;3.58;;
73980;SDS011;62348;51.412;5.436;2024-03-25T03:16:47;7.00;;;2.30;;
73980;SDS011;62348;51.412;5.436;2024-03-25T03:19:14;2.58;;;2.25;;
73980;SDS011;62348;51.412;5.436;2024-03-25T03:21:40;3.30;;;1.98;;
73980;SDS011;62348;51.412;5.436;2024-03-25T03:24:05;7.88;;;2.92;;
73980;SDS011;62348;51.412;5.436;2024-03-25T03:26:30;4.20;;;2.33;;
73980;SDS011;62348;51.412;5.436;2024-03-25T03:28:56;3.88;;;1.55;;
73980;SDS011;62348;51.412;5.436;2024-03-25T03:31:22;5.35;;;1.95;;
73980;SDS011;62348;51.412;5.436;2024-03-25T03:33:48;3.60;;;2.30;;
73980;SDS011;62348;51.412;5.436;2024-03-25T03:36:17;3.55;;;2.65;;
73980;SDS011;62348;51.412;5.436;2024-03-25T03:38:43;3.58;;;2.10;;
73980;SDS011;62348;51.412;5.436;2024-03-25T03:41:09;5.78;;;2.35;;
73980;SDS011;62348;51.412;5.436;2024-03-25T03:43:35;3.67;;;2.08;;
73980;SDS011;62348;51.412;5.436;2024-03-25T03:46:01;7.75;;;3.17;;
73980;SDS011;62348;51.412;5.436;2024-03-25T03:48:27;2.40;;;1.95;;
73980;SDS011;62348;51.412;5.436;2024-03-25T03:50:52;6.32;;;2.00;;
73980;SDS011;62348;51.412;5.436;2024-03-25T03:53:17;1.80;;;1.70;;
73980;SDS011;62348;51.412;5.436;2024-03-25T03:55:52;5.03;;;2.25;;
73980;SDS011;62348;51.412;5.436;2024-03-25T03:58:21;2.83;;;2.03;;
73980;SDS011;62348;51.412;5.436;2024-03-25T04:00:47;5.10;;;3.90;;
73980;SDS011;62348;51.412;5.436;2024-03-25T04:03:13;3.28;;;1.90;;
73980;SDS011;62348;51.412;5.436;2024-03-25T04:05:38;10.80;;;3.15;;
73980;SDS011;62348;51.412;5.436;2024-03-25T04:08:04;4.55;;;2.60;;
73980;SDS011;62348;51.412;5.436;2024-03-25T04:10:30;5.00;;;3.22;;
73980;SDS011;62348;51.412;5.436;2024-03-25T04:12:55;11.30;;;3.15;;
73980;SDS011;62348;51.412;5.436;2024-03-25T04:15:21;4.82;;;2.50;;
73980;SDS011;62348;51.412;5.436;2024-03-25T04:17:47;8.88;;;2.67;;
73980;SDS011;62348;51.412;5.436;2024-03-25T04:20:14;2.78;;;2.03;;
73980;SDS011;62348;51.412;5.436;2024-03-25T04:22:41;7.45;;;3.47;;
73980;SDS011;62348;51.412;5.436;2024-03-25T04:25:07;4.78;;;2.17;;
73980;SDS011;62348;51.412;5.436;2024-03-25T04:27:34;7.72;;;2.35;;
73980;SDS011;62348;51.412;5.436;2024-03-25T04:29:59;8.75;;;2.63;;
73980;SDS011;62348;51.412;5.436;2024-03-25T04:32:24;13.02;;;2.88;;
73980;SDS011;62348;51.412;5.436;2024-03-25T04:34:50;2.97;;;2.13;;
73980;SDS011;62348;51.412;5.436;2024-03-25T04:37:15;4.03;;;2.42;;
73980;SDS011;62348;51.412;5.436;2024-03-25T04:39:40;8.18;;;2.55;;
73980;SDS011;62348;51.412;5.436;2024-03-25T04:42:06;5.38;;;2.88;;
73980;SDS011;62348;51.412;5.436;2024-03-25T04:44:31;3.25;;;2.58;;
73980;SDS011;62348;51.412;5.436;2024-03-25T04:46:56;6.13;;;2.00;;
73980;SDS011;62348;51.412;5.436;2024-03-25T04:49:22;7.45;;;3.80;;
73980;SDS011;62348;51.412;5.436;2024-03-25T04:51:47;4.00;;;2.22;;
73980;SDS011;62348;51.412;5.436;2024-03-25T04:54:15;8.15;;;2.75;;
73980;SDS011;62348;51.412;5.436;2024-03-25T04:56:41;4.18;;;2.72;;
73980;SDS011;62348;51.412;5.436;2024-03-25T04:59:06;5.03;;;3.03;;
73980;SDS011;62348;51.412;5.436;2024-03-25T05:01:32;4.68;;;3.10;;
73980;SDS011;62348;51.412;5.436;2024-03-25T05:03:57;6.72;;;2.92;;
73980;SDS011;62348;51.412;5.436;2024-03-25T05:06:23;5.72;;;3.20;;
73980;SDS011;62348;51.412;5.436;2024-03-25T05:08:48;4.75;;;2.90;;
73980;SDS011;62348;51.412;5.436;2024-03-25T05:11:13;4.50;;;2.42;;
73980;SDS011;62348;51.412;5.436;2024-03-25T05:13:39;4.38;;;2.40;;
73980;SDS011;62348;51.412;5.436;2024-03-25T05:16:04;4.97;;;3.22;;
73980;SDS011;62348;51.412;5.436;2024-03-25T05:18:29;9.98;;;4.20;;
73980;SDS011;62348;51.412;5.436;2024-03-25T05:20:55;4.82;;;3.42;;
73980;SDS011;62348;51.412;5.436;2024-03-25T05:23:20;12.98;;;3.42;;
73980;SDS011;62348;51.412;5.436;2024-03-25T05:25:45;5.50;;;4.05;;
73980;SDS011;62348;51.412;5.436;2024-03-25T05:28:11;12.27;;;2.58;;
73980;SDS011;62348;51.412;5.436;2024-03-25T05:30:38;3.03;;;2.65;;
73980;SDS011;62348;51.412;5.436;2024-03-25T05:33:03;3.70;;;2.42;;
73980;SDS011;62348;51.412;5.436;2024-03-25T05:35:29;4.90;;;3.35;;
73980;SDS011;62348;51.412;5.436;2024-03-25T05:37:55;5.43;;;2.92;;
73980;SDS011;62348;51.412;5.436;2024-03-25T05:40:21;4.97;;;2.78;;
73980;SDS011;62348;51.412;5.436;2024-03-25T05:42:46;4.93;;;2.63;;
73980;SDS011;62348;51.412;5.436;2024-03-25T05:45:11;6.07;;;3.97;;
73980;SDS011;62348;51.412;5.436;2024-03-25T05:47:37;4.63;;;2.85;;
73980;SDS011;62348;51.412;5.436;2024-03-25T05:50:02;3.03;;;2.45;;
73980;SDS011;62348;51.412;5.436;2024-03-25T05:52:30;5.40;;;2.72;;
73980;SDS011;62348;51.412;5.436;2024-03-25T05:54:56;3.63;;;2.60;;
73980;SDS011;62348;51.412;5.436;2024-03-25T05:57:21;17.80;;;3.63;;
73980;SDS011;62348;51.412;5.436;2024-03-25T05:59:46;3.30;;;2.78;;
73980;SDS011;62348;51.412;5.436;2024-03-25T06:02:12;3.28;;;2.97;;
73980;SDS011;62348;51.412;5.436;2024-03-25T06:04:37;5.57;;;2.63;;
73980;SDS011;62348;51.412;5.436;2024-03-25T06:07:03;4.32;;;2.75;;
73980;SDS011;62348;51.412;5.436;2024-03-25T06:09:28;5.72;;;2.95;;
73980;SDS011;62348;51.412;5.436;2024-03-25T06:11:54;4.43;;;2.38;;
73980;SDS011;62348;51.412;5.436;2024-03-25T06:14:19;7.03;;;2.38;;
73980;SDS011;62348;51.412;5.436;2024-03-25T06:16:45;13.77;;;3.60;;
73980;SDS011;62348;51.412;5.436;2024-03-25T06:19:10;7.00;;;3.20;;
73980;SDS011;62348;51.412;5.436;2024-03-25T06:21:35;3.45;;;3.13;;
73980;SDS011;62348;51.412;5.436;2024-03-25T06:24:01;6.72;;;2.80;;
73980;SDS011;62348;51.412;5.436;2024-03-25T06:26:26;5.82;;;2.90;;
73980;SDS011;62348;51.412;5.436;2024-03-25T06:28:51;7.15;;;2.75;;
73980;SDS011;62348;51.412;5.436;2024-03-25T06:31:17;4.97;;;3.08;;
73980;SDS011;62348;51.412;5.436;2024-03-25T06:34:21;4.78;;;3.15;;
73980;SDS011;62348;51.412;5.436;2024-03-25T06:36:47;7.70;;;3.63;;
73980;SDS011;62348;51.412;5.436;2024-03-25T06:39:13;4.55;;;3.10;;
73980;SDS011;62348;51.412;5.436;2024-03-25T06:41:39;6.97;;;2.67;;
73980;SDS011;62348;51.412;5.436;2024-03-25T06:44:05;5.20;;;2.38;;
73980;SDS011;62348;51.412;5.436;2024-03-25T06:46:30;5.20;;;2.50;;
73980;SDS011;62348;51.412;5.436;2024-03-25T06:48:56;8.93;;;3.42;;
73980;SDS011;62348;51.412;5.436;2024-03-25T06:51:21;3.85;;;2.95;;
73980;SDS011;62348;51.412;5.436;2024-03-25T06:53:47;6.05;;;2.70;;
73980;SDS011;62348;51.412;5.436;2024-03-25T06:56:12;4.25;;;2.85;;
73980;SDS011;62348;51.412;5.436;2024-03-25T06:58:37;3.53;;;2.38;;
73980;SDS011;62348;51.412;5.436;2024-03-25T07:01:04;5.60;;;2.83;;
73980;SDS011;62348;51.412;5.436;2024-03-25T07:03:33;6.10;;;2.67;;
73980;SDS011;62348;51.412;5.436;2024-03-25T07:06:00;6.80;;;2.83;;
73980;SDS011;62348;51.412;5.436;2024-03-25T07:08:26;9.52;;;4.32;;
73980;SDS011;62348;51.412;5.436;2024-03-25T07:10:52;11.07;;;3.45;;
73980;SDS011;62348;51.412;5.436;2024-03-25T07:13:18;14.05;;;3.85;;
73980;SDS011;62348;51.412;5.436;2024-03-25T07:15:43;8.18;;;3.45;;
73980;SDS011;62348;51.412;5.436;2024-03-25T07:18:09;11.77;;;4.65;;
73980;SDS011;62348;51.412;5.436;2024-03-25T07:20:38;9.60;;;4.70;;
73980;SDS011;62348;51.412;5.436;2024-03-25T07:23:04;12.15;;;4.28;;
73980;SDS011;62348;51.412;5.436;2024-03-25T07:25:30;15.20;;;6.50;;
73980;SDS011;62348;51.412;5.436;2024-03-25T07:27:56;9.23;;;4.47;;
73980;SDS011;62348;51.412;5.436;2024-03-25T07:30:21;10.10;;;5.03;;
73980;SDS011;62348;51.412;5.436;2024-03-25T07:32:49;7.35;;;4.40;;
73980;SDS011;62348;51.412;5.436;2024-03-25T07:35:15;29.92;;;5.57;;
73980;SDS011;62348;51.412;5.436;2024-03-25T07:37:42;21.05;;;7.05;;
73980;SDS011;62348;51.412;5.436;2024-03-25T07:40:08;12.52;;;4.63;;
73980;SDS011;62348;51.412;5.436;2024-03-25T07:42:39;9.20;;;5.23;;
73980;SDS011;62348;51.412;5.436;2024-03-25T07:45:05;15.45;;;7.03;;
73980;SDS011;62348;51.412;5.436;2024-03-25T07:47:31;24.13;;;7.88;;
73980;SDS011;62348;51.412;5.436;2024-03-25T07:49:57;22.88;;;7.40;;
73980;SDS011;62348;51.412;5.436;2024-03-25T07:52:24;13.85;;;6.40;;
73980;SDS011;62348;51.412;5.436;2024-03-25T07:54:49;18.25;;;7.60;;
73980;SDS011;62348;51.412;5.436;2024-03-25T07:57:15;20.42;;;7.60;;
73980;SDS011;62348;51.412;5.436;2024-03-25T07:59:40;13.82;;;8.68;;
73980;SDS011;62348;51.412;5.436;2024-03-25T08:02:05;21.95;;;9.10;;
73980;SDS011;62348;51.412;5.436;2024-03-25T08:04:31;10.60;;;8.35;;
73980;SDS011;62348;51.412;5.436;2024-03-25T08:06:56;11.15;;;7.80;;
73980;SDS011;62348;51.412;5.436;2024-03-25T08:09:21;20.65;;;7.82;;
73980;SDS011;62348;51.412;5.436;2024-03-25T08:11:47;20.55;;;9.85;;
73980;SDS011;62348;51.412;5.436;2024-03-25T08:14:12;18.80;;;7.78;;
73980;SDS011;62348;51.412;5.436;2024-03-25T08:16:38;15.75;;;9.35;;
73980;SDS011;62348;51.412;5.436;2024-03-25T08:19:03;18.17;;;9.27;;
73980;SDS011;62348;51.412;5.436;2024-03-25T08:21:29;20.92;;;8.60;;
73980;SDS011;62348;51.412;5.436;2024-03-25T08:23:54;21.55;;;9.85;;
73980;SDS011;62348;51.412;5.436;2024-03-25T08:26:20;14.20;;;8.02;;
73980;SDS011;62348;51.412;5.436;2024-03-25T08:28:45;23.42;;;9.85;;
73980;SDS011;62348;51.412;5.436;2024-03-25T08:31:10;19.73;;;9.15;;
73980;SDS011;62348;51.412;5.436;2024-03-25T08:33:36;21.10;;;10.32;;
73980;SDS011;62348;51.412;5.436;2024-03-25T08:36:01;20.17;;;9.43;;
73980;SDS011;62348;51.412;5.436;2024-03-25T08:38:28;19.08;;;9.95;;
73980;SDS011;62348;51.412;5.436;2024-03-25T08:40:53;14.52;;;8.00;;
73980;SDS011;62348;51.412;5.436;2024-03-25T08:43:18;11.40;;;6.53;;
73980;SDS011;62348;51.412;5.436;2024-03-25T08:45:44;17.08;;;7.80;;
73980;SDS011;62348;51.412;5.436;2024-03-25T08:48:11;14.57;;;7.97;;
73980;SDS011;62348;51.412;5.436;2024-03-25T08:50:36;13.75;;;8.25;;
73980;SDS011;62348;51.412;5.436;2024-03-25T08:53:03;17.75;;;7.88;;
73980;SDS011;62348;51.412;5.436;2024-03-25T08:55:28;19.50;;;7.97;;
73980;SDS011;62348;51.412;5.436;2024-03-25T08:57:54;14.32;;;6.93;;
73980;SDS011;62348;51.412;5.436;2024-03-25T09:00:19;12.00;;;7.47;;
73980;SDS011;62348;51.412;5.436;2024-03-25T09:02:45;13.80;;;6.20;;
73980;SDS011;62348;51.412;5.436;2024-03-25T09:05:10;8.18;;;5.65;;
73980;SDS011;62348;51.412;5.436;2024-03-25T09:07:35;12.13;;;6.47;;
73980;SDS011;62348;51.412;5.436;2024-03-25T09:10:02;11.68;;;6.43;;
73980;SDS011;62348;51.412;5.436;2024-03-25T09:12:46;9.50;;;5.38;;
73980;SDS011;62348;51.412;5.436;2024-03-25T09:15:11;10.85;;;5.93;;
73980;SDS011;62348;51.412;5.436;2024-03-25T09:17:37;15.38;;;5.95;;
73980;SDS011;62348;51.412;5.436;2024-03-25T09:20:02;11.05;;;5.45;;
73980;SDS011;62348;51.412;5.436;2024-03-25T09:22:41;12.98;;;6.07;;
73980;SDS011;62348;51.412;5.436;2024-03-25T09:25:07;9.88;;;4.70;;
73980;SDS011;62348;51.412;5.436;2024-03-25T09:27:33;9.48;;;4.53;;
73980;SDS011;62348;51.412;5.436;2024-03-25T09:29:58;11.25;;;5.05;;
73980;SDS011;62348;51.412;5.436;2024-03-25T09:32:24;16.35;;;6.60;;
73980;SDS011;62348;51.412;5.436;2024-03-25T09:34:50;9.95;;;5.30;;
73980;SDS011;62348;51.412;5.436;2024-03-25T09:37:16;12.02;;;4.93;;
73980;SDS011;62348;51.412;5.436;2024-03-25T09:39:42;29.70;;;8.60;;
73980;SDS011;62348;51.412;5.436;2024-03-25T09:42:08;12.82;;;5.63;;
73980;SDS011;62348;51.412;5.436;2024-03-25T09:44:39;12.02;;;5.35;;
73980;SDS011;62348;51.412;5.436;2024-03-25T09:47:04;9.40;;;4.38;;
73980;SDS011;62348;51.412;5.436;2024-03-25T09:49:30;10.13;;;4.05;;
73980;SDS011;62348;51.412;5.436;2024-03-25T09:51:57;14.05;;;5.90;;
73980;SDS011;62348;51.412;5.436;2024-03-25T09:54:23;15.10;;;6.07;;
73980;SDS011;62348;51.412;5.436;2024-03-25T09:56:48;7.07;;;3.80;;
73980;SDS011;62348;51.412;5.436;2024-03-25T09:59:14;10.95;;;4.78;;
73980;SDS011;62348;51.412;5.436;2024-03-25T10:01:40;9.50;;;3.90;;
73980;SDS011;62348;51.412;5.436;2024-03-25T10:04:07;5.65;;;3.75;;
73980;SDS011;62348;51.412;5.436;2024-03-25T10:06:33;11.48;;;3.83;;
73980;SDS011;62348;51.412;5.436;2024-03-25T10:08:58;9.88;;;3.83;;
73980;SDS011;62348;51.412;5.436;2024-03-25T10:11:24;8.98;;;5.25;;
73980;SDS011;62348;51.412;5.436;2024-03-25T10:13:50;6.82;;;3.55;;
73980;SDS011;62348;51.412;5.436;2024-03-25T10:16:15;6.78;;;3.53;;
73980;SDS011;62348;51.412;5.436;2024-03-25T10:18:42;4.88;;;2.92;;
73980;SDS011;62348;51.412;5.436;2024-03-25T10:21:09;7.03;;;3.10;;
73980;SDS011;62348;51.412;5.436;2024-03-25T10:23:35;3.40;;;2.45;;
73980;SDS011;62348;51.412;5.436;2024-03-25T10:26:05;4.55;;;2.45;;
73980;SDS011;62348;51.412;5.436;2024-03-25T10:28:31;5.47;;;2.60;;
73980;SDS011;62348;51.412;5.436;2024-03-25T10:31:02;5.28;;;2.55;;
73980;SDS011;62348;51.412;5.436;2024-03-25T10:33:28;2.42;;;2.00;;
73980;SDS011;62348;51.412;5.436;2024-03-25T10:35:54;2.35;;;1.58;;
73980;SDS011;62348;51.412;5.436;2024-03-25T10:38:23;3.15;;;2.03;;
73980;SDS011;62348;51.412;5.436;2024-03-25T10:40:50;5.82;;;2.30;;
73980;SDS011;62348;51.412;5.436;2024-03-25T10:43:18;3.58;;;1.60;;
73980;SDS011;62348;51.412;5.436;2024-03-25T10:45:49;2.28;;;1.70;;
73980;SDS011;62348;51.412;5.436;2024-03-25T10:50:50;5.78;;;1.88;;
73980;SDS011;62348;51.412;5.436;2024-03-25T10:53:18;4.88;;;1.83;;
73980;SDS011;62348;51.412;5.436;2024-03-25T10:55:46;2.88;;;1.55;;
73980;SDS011;62348;51.412;5.436;2024-03-25T10:58:15;2.22;;;1.73;;
73980;SDS011;62348;51.412;5.436;2024-03-25T11:00:41;4.47;;;1.73;;
73980;SDS011;62348;51.412;5.436;2024-03-25T11:03:08;5.03;;;1.63;;
73980;SDS011;62348;51.412;5.436;2024-03-25T11:05:34;3.28;;;1.50;;
73980;SDS011;62348;51.412;5.436;2024-03-25T11:08:12;5.45;;;2.00;;
73980;SDS011;62348;51.412;5.436;2024-03-25T11:10:39;4.43;;;1.58;;
73980;SDS011;62348;51.412;5.436;2024-03-25T11:13:09;2.90;;;1.48;;
73980;SDS011;62348;51.412;5.436;2024-03-25T11:15:37;5.97;;;2.10;;
73980;SDS011;62348;51.412;5.436;2024-03-25T11:18:15;6.43;;;1.40;;
73980;SDS011;62348;51.412;5.436;2024-03-25T11:20:43;4.28;;;2.30;;
73980;SDS011;62348;51.412;5.436;2024-03-25T11:23:09;2.83;;;1.30;;
73980;SDS011;62348;51.412;5.436;2024-03-25T11:25:35;3.15;;;1.55;;
73980;SDS011;62348;51.412;5.436;2024-03-25T11:28:01;1.15;;;1.05;;
73980;SDS011;62348;51.412;5.436;2024-03-25T11:30:27;2.28;;;1.73;;
73980;SDS011;62348;51.412;5.436;2024-03-25T11:32:54;2.83;;;2.00;;
73980;SDS011;62348;51.412;5.436;2024-03-25T11:35:20;4.22;;;1.60;;
73980;SDS011;62348;51.412;5.436;2024-03-25T11:37:46;1.48;;;1.02;;
73980;SDS011;62348;51.412;5.436;2024-03-25T11:40:12;5.20;;;1.55;;
73980;SDS011;62348;51.412;5.436;2024-03-25T11:42:39;2.58;;;1.60;;
73980;SDS011;62348;51.412;5.436;2024-03-25T11:45:15;3.90;;;1.52;;
73980;SDS011;62348;51.412;5.436;2024-03-25T11:47:42;1.65;;;1.30;;
73980;SDS011;62348;51.412;5.436;2024-03-25T11:50:09;2.92;;;1.27;;
73980;SDS011;62348;51.412;5.436;2024-03-25T11:52:38;1.48;;;1.20;;
73980;SDS011;62348;51.412;5.436;2024-03-25T11:55:03;4.63;;;1.55;;
73980;SDS011;62348;51.412;5.436;2024-03-25T11:57:29;3.30;;;1.58;;
73980;SDS011;62348;51.412;5.436;2024-03-25T11:59:55;2.83;;;1.42;;
73980;SDS011;62348;51.412;5.436;2024-03-25T12:02:20;2.10;;;1.15;;
73980;SDS011;62348;51.412;5.436;2024-03-25T12:04:47;1.08;;;0.82;;
73980;SDS011;62348;51.412;5.436;2024-03-25T12:07:13;1.35;;;1.15;;
73980;SDS011;62348;51.412;5.436;2024-03-25T12:09:41;3.95;;;1.90;;
73980;SDS011;62348;51.412;5.436;2024-03-25T12:12:26;1.45;;;1.05;;
73980;SDS011;62348;51.412;5.436;2024-03-25T12:14:52;1.85;;;1.05;;
73980;SDS011;62348;51.412;5.436;2024-03-25T12:17:18;3.45;;;0.90;;
73980;SDS011;62348;51.412;5.436;2024-03-25T12:19:45;2.65;;;1.85;;
73980;SDS011;62348;51.412;5.436;2024-03-25T12:22:24;2.92;;;1.35;;
73980;SDS011;62348;51.412;5.436;2024-03-25T12:24:50;4.57;;;1.52;;
73980;SDS011;62348;51.412;5.436;2024-03-25T12:27:15;4.78;;;1.73;;
73980;SDS011;62348;51.412;5.436;2024-03-25T12:29:41;2.85;;;1.55;;
73980;SDS011;62348;51.412;5.436;2024-03-25T12:32:09;3.33;;;1.58;;
73980;SDS011;62348;51.412;5.436;2024-03-25T12:34:34;2.13;;;1.25;;
73980;SDS011;62348;51.412;5.436;2024-03-25T12:37:00;1.75;;;1.38;;
73980;SDS011;62348;51.412;5.436;2024-03-25T12:39:32;2.03;;;1.17;;
73980;SDS011;62348;51.412;5.436;2024-03-25T12:41:57;2.20;;;1.42;;
73980;SDS011;62348;51.412;5.436;2024-03-25T12:44:22;1.90;;;1.45;;
73980;SDS011;62348;51.412;5.436;2024-03-25T12:46:48;3.80;;;1.65;;
73980;SDS011;62348;51.412;5.436;2024-03-25T12:49:13;2.30;;;1.33;;
73980;SDS011;62348;51.412;5.436;2024-03-25T12:51:39;5.30;;;1.92;;
73980;SDS011;62348;51.412;5.436;2024-03-25T12:54:04;2.85;;;1.38;;
73980;SDS011;62348;51.412;5.436;2024-03-25T12:56:30;1.60;;;1.05;;
73980;SDS011;62348;51.412;5.436;2024-03-25T12:58:55;1.27;;;0.80;;
73980;SDS011;62348;51.412;5.436;2024-03-25T13:01:20;4.82;;;2.60;;
73980;SDS011;62348;51.412;5.436;2024-03-25T13:03:46;2.92;;;1.20;;
73980;SDS011;62348;51.412;5.436;2024-03-25T13:06:11;3.20;;;1.58;;
73980;SDS011;62348;51.412;5.436;2024-03-25T13:08:37;1.80;;;1.55;;
73980;SDS011;62348;51.412;5.436;2024-03-25T13:11:02;3.08;;;1.27;;
73980;SDS011;62348;51.412;5.436;2024-03-25T13:13:28;1.85;;;1.30;;
73980;SDS011;62348;51.412;5.436;2024-03-25T13:15:54;2.90;;;1.17;;
73980;SDS011;62348;51.412;5.436;2024-03-25T13:18:19;3.13;;;1.40;;
73980;SDS011;62348;51.412;5.436;2024-03-25T13:20:45;6.50;;;1.30;;
73980;SDS011;62348;51.412;5.436;2024-03-25T13:23:10;2.28;;;1.42;;
73980;SDS011;62348;51.412;5.436;2024-03-25T13:25:36;3.38;;;0.90;;
73980;SDS011;62348;51.412;5.436;2024-03-25T13:28:01;1.58;;;1.48;;
73980;SDS011;62348;51.412;5.436;2024-03-25T13:30:27;4.05;;;1.17;;
73980;SDS011;62348;51.412;5.436;2024-03-25T13:32:52;1.73;;;1.10;;
73980;SDS011;62348;51.412;5.436;2024-03-25T13:35:18;3.35;;;1.23;;
73980;SDS011;62348;51.412;5.436;2024-03-25T13:37:43;2.88;;;1.17;;
73980;SDS011;62348;51.412;5.436;2024-03-25T13:40:09;1.67;;;1.10;;
73980;SDS011;62348;51.412;5.436;2024-03-25T13:42:36;2.92;;;1.10;;
73980;SDS011;62348;51.412;5.436;2024-03-25T13:45:02;1.63;;;1.20;;
73980;SDS011;62348;51.412;5.436;2024-03-25T13:47:29;1.45;;;1.00;;
73980;SDS011;62348;51.412;5.436;2024-03-25T13:50:01;2.03;;;1.10;;
73980;SDS011;62348;51.412;5.436;2024-03-25T13:52:32;3.08;;;1.05;;
73980;SDS011;62348;51.412;5.436;2024-03-25T13:54:57;2.20;;;1.15;;
73980;SDS011;62348;51.412;5.436;2024-03-25T13:57:23;1.08;;;0.95;;
73980;SDS011;62348;51.412;5.436;2024-03-25T13:59:50;1.77;;;1.20;;
73980;SDS011;62348;51.412;5.436;2024-03-25T14:02:15;4.03;;;1.45;;
73980;SDS011;62348;51.412;5.436;2024-03-25T14:04:41;3.00;;;1.30;;
73980;SDS011;62348;51.412;5.436;2024-03-25T14:07:06;4.47;;;1.20;;
73980;SDS011;62348;51.412;5.436;2024-03-25T14:09:31;2.10;;;1.13;;
73980;SDS011;62348;51.412;5.436;2024-03-25T14:11:57;2.20;;;1.13;;
73980;SDS011;62348;51.412;5.436;2024-03-25T14:14:22;2.22;;;1.15;;
73980;SDS011;62348;51.412;5.436;2024-03-25T14:16:48;5.80;;;1.15;;
73980;SDS011;62348;51.412;5.436;2024-03-25T14:19:13;1.65;;;1.17;;
73980;SDS011;62348;51.412;5.436;2024-03-25T14:21:38;2.13;;;1.35;;
73980;SDS011;62348;51.412;5.436;2024-03-25T14:24:07;2.72;;;1.30;;
73980;SDS011;62348;51.412;5.436;2024-03-25T14:26:33;2.55;;;1.20;;
73980;SDS011;62348;51.412;5.436;2024-03-25T14:28:58;1.60;;;1.27;;
73980;SDS011;62348;51.412;5.436;2024-03-25T14:31:26;1.83;;;1.50;;
73980;SDS011;62348;51.412;5.436;2024-03-25T14:33:54;1.88;;;1.30;;
73980;SDS011;62348;51.412;5.436;2024-03-25T14:36:20;4.18;;;1.50;;
73980;SDS011;62348;51.412;5.436;2024-03-25T14:38:45;2.40;;;1.42;;
73980;SDS011;62348;51.412;5.436;2024-03-25T14:41:11;2.35;;;1.77;;
73980;SDS011;62348;51.412;5.436;2024-03-25T14:43:37;2.55;;;1.48;;
73980;SDS011;62348;51.412;5.436;2024-03-25T14:46:02;1.42;;;1.33;;
73980;SDS011;62348;51.412;5.436;2024-03-25T14:48:29;4.28;;;1.60;;
73980;SDS011;62348;51.412;5.436;2024-03-25T14:50:55;2.72;;;1.48;;
73980;SDS011;62348;51.412;5.436;2024-03-25T14:53:20;4.85;;;2.40;;